Time;durP1;ratioP1;P1;durP2;ratioP2;P2;SDS_P1;SDS_P2;PMS_P1;PMS_P2;Temp;Humidity;BMP_temperature;BMP_pressure;BME280_temperature;BME280_humidity;BME280_pressure;Samples;Min_cycle;Max_cycle;Signal;HPM_P1;HPM_P2
2021/09/01 08:44:07;;;;;;;32.75;18.15;;;21.70;97.20;;;;;;14882444;22;1348564;-53
2021/09/01 08:49:55;;;;;;;32.08;17.02;;;21.70;97.00;;;;;;14874033;22;20095;-53
2021/09/01 08:55:42;;;;;;;35.95;18.17;;;22.10;97.20;;;;;;14874790;22;20378;-54
2021/09/01 09:01:40;;;;;;;28.95;17.77;;;22.40;96.30;;;;;;14875184;22;20102;-52
2021/09/01 09:07:27;;;;;;;35.53;17.35;;;22.30;95.40;;;;;;14865965;22;20119;-51
2021/09/01 09:13:24;;;;;;;36.72;19.50;;;22.30;95.50;;;;;;14858580;22;20047;-52
2021/09/01 09:19:14;;;;;;;32.35;18.85;;;22.30;94.90;;;;;;14857164;22;20024;-51
2021/09/01 09:25:10;;;;;;;46.05;21.50;;;22.20;95.10;;;;;;14856763;22;20092;-51
2021/09/01 09:31:02;;;;;;;46.75;20.42;;;22.20;94.90;;;;;;14858413;22;20024;-52
2021/09/01 09:37:04;;;;;;;37.88;18.80;;;22.10;94.70;;;;;;14858385;22;20102;-48
2021/09/01 09:42:51;;;;;;;37.30;20.30;;;22.00;94.70;;;;;;14838076;22;20032;-50
2021/09/01 09:48:40;;;;;;;42.85;20.15;;;21.90;95.10;;;;;;14829006;22;20024;-54
2021/09/01 09:54:29;;;;;;;34.38;18.40;;;22.00;95.50;;;;;;14844617;22;20044;-50
2021/09/01 10:00:17;;;;;;;42.78;19.33;;;22.10;95.10;;;;;;14856600;22;20027;-49
2021/09/01 10:06:05;;;;;;;35.53;17.27;;;22.20;94.80;;;;;;14856640;22;20102;-49
2021/09/01 10:11:55;;;;;;;28.00;15.82;;;22.40;95.00;;;;;;14857571;22;20020;-48
2021/09/01 10:17:45;;;;;;;32.08;14.13;;;22.70;94.10;;;;;;14855319;22;20024;-51
2021/09/01 10:23:40;;;;;;;26.98;14.40;;;22.90;93.50;;;;;;14859866;22;20080;-50
2021/09/01 10:29:46;;;;;;;28.30;14.45;;;23.00;93.30;;;;;;14860424;22;20433;-49
2021/09/01 10:35:33;;;;;;;25.92;12.93;;;23.20;93.10;;;;;;14860210;22;20028;-52
2021/09/01 10:41:27;;;;;;;31.17;16.40;;;23.30;92.60;;;;;;14848965;22;20020;-47
2021/09/01 10:47:23;;;;;;;29.67;15.65;;;23.30;92.70;;;;;;14855704;22;20020;-53
2021/09/01 10:53:20;;;;;;;40.75;13.27;;;23.00;91.80;;;;;;14856088;22;20023;-51
2021/09/01 10:59:24;;;;;;;30.60;13.57;;;22.80;93.00;;;;;;14856420;22;20449;-52
2021/09/01 11:05:22;;;;;;;24.40;13.52;;;23.00;92.40;;;;;;14856506;22;20028;-51
2021/09/01 11:11:09;;;;;;;22.45;11.95;;;23.10;91.70;;;;;;14854872;22;20411;-53
2021/09/01 11:16:56;;;;;;;31.00;14.27;;;22.90;92.00;;;;;;14855820;22;20055;-50
2021/09/01 11:22:45;;;;;;;18.92;11.80;;;23.20;91.30;;;;;;14856414;22;20098;-49
2021/09/01 11:28:32;;;;;;;23.90;12.20;;;23.10;91.10;;;;;;14855495;22;20059;-55
2021/09/01 11:34:19;;;;;;;21.50;10.23;;;23.30;90.90;;;;;;14858412;22;20028;-50
2021/09/01 11:40:09;;;;;;;30.98;18.50;;;23.40;90.50;;;;;;14843220;22;20547;-50
2021/09/01 11:45:58;;;;;;;21.45;10.98;;;23.60;90.40;;;;;;14741435;23;20032;-53
2021/09/01 11:58:28;;;;;;;22.20;10.57;;;23.60;87.50;;;;;;14780361;22;20013;-53
2021/09/01 12:04:16;;;;;;;16.15;8.95;;;23.70;88.50;;;;;;14784517;23;20103;-52
2021/09/01 12:10:06;;;;;;;17.17;8.95;;;23.80;86.70;;;;;;14782899;22;20024;-47
2021/09/01 12:15:58;;;;;;;13.07;8.55;;;23.90;86.50;;;;;;14782742;22;20112;-52
2021/09/01 12:21:49;;;;;;;17.15;8.60;;;24.20;86.40;;;;;;14781895;22;20467;-50
2021/09/01 12:27:37;;;;;;;14.20;8.07;;;24.70;84.70;;;;;;14782887;22;20050;-50
2021/09/01 12:33:31;;;;;;;16.08;8.13;;;24.90;81.10;;;;;;14782963;22;20119;-49
2021/09/01 12:39:18;;;;;;;11.98;7.57;;;24.80;83.30;;;;;;14782402;22;20550;-52
2021/09/01 12:45:07;;;;;;;18.05;8.07;;;24.90;81.70;;;;;;14823023;23;20034;-52
2021/09/01 12:50:55;;;;;;;13.32;6.80;;;25.20;80.60;;;;;;14828858;23;20024;-49
2021/09/01 12:56:42;;;;;;;11.27;7.28;;;25.30;79.40;;;;;;14830799;23;20070;-50
2021/09/01 13:02:29;;;;;;;11.55;6.95;;;25.70;79.20;;;;;;14827987;23;20026;-49
2021/09/01 13:08:18;;;;;;;12.75;6.43;;;25.80;78.00;;;;;;14783381;23;20016;-52
2021/09/01 13:14:05;;;;;;;10.48;6.47;;;25.70;78.60;;;;;;14857942;22;20331;-52
2021/09/01 13:19:52;;;;;;;14.82;6.43;;;25.70;76.30;;;;;;14857051;23;20012;-52
2021/09/01 13:25:40;;;;;;;13.65;6.78;;;25.60;76.50;;;;;;14857963;22;20031;-51
2021/09/01 13:31:28;;;;;;;11.32;5.82;;;25.70;74.30;;;;;;14857804;22;20040;-52
2021/09/01 13:37:15;;;;;;;10.70;6.05;;;25.80;75.90;;;;;;14859091;22;20591;-49
2021/09/01 13:43:04;;;;;;;11.07;6.60;;;26.00;75.30;;;;;;14758353;23;20171;-50
2021/09/01 13:48:50;;;;;;;10.98;5.47;;;26.30;73.30;;;;;;14819329;23;20035;-48
2021/09/01 13:54:37;;;;;;;13.65;6.47;;;26.50;73.00;;;;;;14856375;22;20106;-47
2021/09/01 14:00:31;;;;;;;12.60;5.38;;;26.70;72.30;;;;;;14856347;22;20016;-52
2021/09/01 14:06:18;;;;;;;16.60;11.73;;;26.50;71.40;;;;;;14860976;23;20067;-50
2021/09/01 14:12:06;;;;;;;12.95;7.40;;;26.30;72.10;;;;;;14856515;22;20099;-53
2021/09/01 14:17:54;;;;;;;9.05;5.80;;;26.30;72.70;;;;;;14855689;22;20075;-54
2021/09/01 14:23:41;;;;;;;8.73;5.30;;;26.10;71.50;;;;;;14855232;22;20038;-50
2021/09/01 14:29:28;;;;;;;11.13;5.35;;;26.20;71.40;;;;;;14855955;22;20522;-48
2021/09/01 14:35:16;;;;;;;9.65;4.97;;;26.30;72.20;;;;;;14856607;22;20526;-49
2021/09/01 14:41:03;;;;;;;10.35;5.03;;;26.50;70.70;;;;;;14858012;22;20027;-52
2021/09/01 14:46:50;;;;;;;10.32;5.18;;;26.80;70.10;;;;;;14855735;22;20358;-50
2021/09/01 14:52:39;;;;;;;115.40;78.00;;;27.00;68.60;;;;;;14860465;23;20055;-52
2021/09/01 14:58:26;;;;;;;10.23;6.15;;;26.70;69.60;;;;;;14855830;22;20020;-50
2021/09/01 15:04:13;;;;;;;8.35;5.30;;;26.70;70.00;;;;;;14859993;23;20091;-53
2021/09/01 15:10:02;;;;;;;9.65;5.10;;;26.80;69.00;;;;;;14855350;22;20028;-50
2021/09/01 15:15:50;;;;;;;12.25;4.93;;;27.10;69.00;;;;;;14409458;22;20028;-81
2021/09/01 15:21:37;;;;;;;14.65;5.43;;;27.30;68.10;;;;;;14764197;23;20757;-80
2021/09/01 15:27:25;;;;;;;10.63;5.85;;;27.20;66.80;;;;;;14759782;23;20028;-81
2021/09/01 15:33:12;;;;;;;10.77;5.20;;;27.20;68.20;;;;;;14711695;23;20365;-80
2021/09/01 15:38:59;;;;;;;9.15;5.45;;;26.90;69.70;;;;;;14769844;23;20048;-81
2021/09/01 15:44:54;;;;;;;12.68;5.72;;;26.80;68.60;;;;;;14769875;23;20032;-80
2021/09/01 15:50:41;;;;;;;11.23;6.05;;;26.80;69.20;;;;;;14766988;23;20028;-82
2021/09/01 15:56:30;;;;;;;14.93;5.50;;;26.90;68.40;;;;;;14768259;23;20107;-82
2021/09/01 16:02:20;;;;;;;10.30;6.10;;;27.10;67.50;;;;;;14768552;23;20195;-79
2021/09/01 16:08:07;;;;;;;9.15;6.43;;;27.00;67.90;;;;;;14767034;23;20035;-83
2021/09/01 16:13:59;;;;;;;9.80;6.32;;;27.20;67.20;;;;;;14750918;23;20024;-84
2021/09/01 16:19:54;;;;;;;9.40;5.73;;;27.20;66.60;;;;;;14773363;23;20028;-83
2021/09/01 16:25:42;;;;;;;10.77;5.80;;;27.30;67.50;;;;;;14773522;23;20107;-83
2021/09/01 16:31:29;;;;;;;12.25;6.28;;;28.30;64.70;;;;;;14773068;23;20126;-84
2021/09/01 16:37:21;;;;;;;8.30;5.53;;;30.10;59.60;;;;;;14775176;23;20060;-84
2021/09/01 16:43:09;;;;;;;11.13;5.60;;;31.40;57.90;;;;;;14776556;23;20021;-84
2021/09/01 16:48:57;;;;;;;10.48;6.10;;;33.70;53.80;;;;;;14777435;23;20151;-84
2021/09/01 16:54:52;;;;;;;16.05;6.50;;;35.30;50.10;;;;;;14744614;23;20596;-83
2021/09/01 17:00:40;;;;;;;11.18;6.28;;;35.60;48.80;;;;;;14748902;23;20107;-84
2021/09/01 17:06:29;;;;;;;11.52;5.43;;;35.60;48.50;;;;;;14717687;23;20049;-83
2021/09/01 17:12:21;;;;;;;9.13;5.90;;;35.30;48.70;;;;;;14702984;23;20025;-84
2021/09/01 17:18:09;;;;;;;11.80;5.90;;;35.40;48.10;;;;;;14801110;22;20700;-84
2021/09/01 17:23:56;;;;;;;166.82;140.30;;;35.00;48.70;;;;;;14836099;22;20472;-83
2021/09/01 17:29:50;;;;;;;16.30;9.75;;;32.90;51.60;;;;;;14801677;22;20023;-82
2021/09/01 17:35:38;;;;;;;16.00;6.50;;;30.40;56.20;;;;;;14834443;23;20032;-82
2021/09/01 17:41:28;;;;;;;17.63;8.55;;;28.60;59.90;;;;;;14770055;22;20111;-80
2021/09/01 17:47:17;;;;;;;39.10;19.33;;;27.50;63.30;;;;;;14801277;23;20024;-82
2021/09/01 17:53:05;;;;;;;19.45;9.40;;;26.60;66.30;;;;;;14699001;23;20029;-79
2021/09/01 17:58:52;;;;;;;31.85;19.20;;;26.10;67.90;;;;;;14838556;23;20024;-81
2021/09/01 18:04:40;;;;;;;74.78;45.95;;;25.70;69.40;;;;;;14840364;23;20143;-80
2021/09/01 18:10:27;;;;;;;18.45;8.13;;;25.30;70.60;;;;;;14840060;22;20034;-80
2021/09/01 18:16:14;;;;;;;17.42;10.82;;;25.10;71.60;;;;;;14812592;22;20135;-82
2021/09/01 18:22:05;;;;;;;20.40;8.57;;;24.80;72.70;;;;;;14764546;22;20063;-80
2021/09/01 18:27:55;;;;;;;65.75;40.80;;;24.60;73.70;;;;;;14825586;22;20028;-82
2021/09/01 18:33:44;;;;;;;25.08;12.57;;;24.40;74.10;;;;;;14825575;23;20397;-84
2021/09/01 18:39:33;;;;;;;14.75;8.10;;;24.20;74.90;;;;;;14819861;23;20031;-83
2021/09/01 18:45:20;;;;;;;15.10;8.77;;;24.10;75.60;;;;;;14838281;23;20875;-83
2021/09/01 18:58:46;;;;;;;20.13;8.32;;;23.70;76.90;;;;;;14517648;23;20033;-84
2021/09/01 19:04:54;;;;;;;26.42;13.13;;;23.50;77.30;;;;;;14741654;22;20035;-82
2021/09/01 19:10:46;;;;;;;15.70;8.05;;;23.30;78.40;;;;;;14741868;22;20029;-82
2021/09/01 19:16:33;;;;;;;14.40;8.00;;;23.30;78.70;;;;;;14683286;22;20024;-83
2021/09/01 19:22:24;;;;;;;16.77;7.20;;;23.20;78.80;;;;;;14701246;22;20127;-82
2021/09/01 19:28:14;;;;;;;15.93;8.02;;;23.10;79.10;;;;;;14769117;22;20028;-82
2021/09/01 19:34:03;;;;;;;14.10;7.35;;;23.00;78.70;;;;;;14825616;22;20130;-82
2021/09/01 19:39:58;;;;;;;13.43;7.47;;;22.80;79.30;;;;;;14837450;23;20083;-83
2021/09/01 19:45:45;;;;;;;17.30;8.10;;;22.80;79.50;;;;;;14778597;23;20039;-87
2021/09/01 19:51:34;;;;;;;15.82;7.28;;;22.60;79.60;;;;;;14854769;23;20020;-86
2021/09/01 19:57:24;;;;;;;13.88;7.03;;;22.60;79.80;;;;;;14852117;23;20491;-85
2021/09/01 20:10:05;;;;;;;;;;;22.60;79.70;;;;;;14767966;23;20036;-90
2021/09/01 20:15:54;;;;;;;12.57;7.05;;;22.60;79.80;;;;;;14837225;23;19927;-86
2021/09/01 20:21:48;;;;;;;13.25;7.20;;;22.50;80.20;;;;;;14829623;23;20048;-91
2021/09/01 20:27:35;;;;;;;29.95;12.40;;;22.40;80.30;;;;;;14705740;22;20024;-86
2021/09/01 20:33:32;;;;;;;18.95;9.10;;;22.40;81.40;;;;;;14803398;22;20043;-85
2021/09/01 20:39:22;;;;;;;18.70;8.52;;;22.30;81.30;;;;;;14821540;23;20499;-90
2021/09/01 20:45:11;;;;;;;16.85;7.63;;;22.30;81.40;;;;;;14848926;23;20055;-90
2021/09/01 20:51:02;;;;;;;13.38;7.18;;;22.20;81.00;;;;;;14764473;23;20024;-91
2021/09/01 20:56:49;;;;;;;20.27;7.97;;;22.10;81.50;;;;;;14847896;23;20031;-88
2021/09/01 21:02:37;;;;;;;15.05;8.35;;;22.00;81.80;;;;;;14841924;23;20024;-89
2021/09/01 21:08:30;;;;;;;15.20;8.68;;;22.10;81.70;;;;;;14780723;22;20120;-91
2021/09/01 21:14:17;;;;;;;14.85;8.48;;;21.90;82.10;;;;;;14856339;23;20028;-90
2021/09/01 21:20:16;;;;;;;17.63;8.15;;;21.80;82.10;;;;;;14838787;23;20060;-89
